Portada
METAR-TAF:

METAR-TAF

Aeroports :

Fernando de Noronha, Pernambuco, Brasil

latitud: 03-51S, longitud: 032-25W, altitud: 56 m

Observació

L'informe es va fer fa 45 minuts, a les 15:00 UTC
Vent 11 kt del Sud-Est, variant entre Est/Nord-Est i Sud
Temperatura 30°C
Humitat 66%
Pressió 1015 hPa
Visibilitat 10 km o més
Escasses núvols a una alçada de 2100 ft

METAR: SBFN 211500Z 13011KT 060V170 9999 FEW021 30/23 Q1015

Hora: 13:45 (15:45 UTC)

Pronòstic

L'informe es va fer fa 5 hores i 45 minuts, a les 10:00 UTC
Pronòstic vàlid del 21 a les 12 UTC al 21 a les 24 UTC
Vent 10 kt del Est/Sud-Est
Visibilitat 10 km o més
Núvols disperses a una alçada de 2000 ft
Evolucionant progressivament
l' 21 a les 20 UTC al 21 a les 22 UTC
Núvols disperses a una alçada de 1500 ft

TAF: SBFN 211000Z 2112/2124 12010KT 9999 SCT020 TX29/2117Z TN26/2122Z BECMG 2120/2122 SCT015 RMK PAZ

Observacions i pronòstics meteorològics de més de 4000 aeroports (METAR i TAF).

Les estacions disponibles són els punts grocs i vermells al mapa.

Posi el ratolí al punt desitjat per veure el nom de l'estació.

Feu clic per veure les observacions i els pronòstics meteorològics.

Per canviar el mapa: feu clic els botons verds amb una creu de color negre per apropar; al botó verd amb un guió per allunyar la imatge; o en les fletxes verdes per a mapes adjacents.


METAR-TAF: